Time;durP1;ratioP1;P1;durP2;ratioP2;P2;SDS_P1;SDS_P2;PMS_P1;PMS_P2;Temp;Humidity;BMP_temperature;BMP_pressure;BME280_temperature;BME280_humidity;BME280_pressure;Samples;Min_cycle;Max_cycle;Signal;HPM_P1;HPM_P2
2021/10/12 00:01:44;;;;;;;7.60;2.50;;;;;;;;;;4791865;28;20560;-81
2021/10/12 00:04:11;;;;;;;7.80;2.40;;;;;;;;;;4801274;28;20760;-80
2021/10/12 00:06:40;;;;;;;8.32;2.85;;;;;;;;;;4774834;28;20026;-80
2021/10/12 00:09:07;;;;;;;9.38;2.47;;;;;;;;;;4782198;28;20768;-80
2021/10/12 00:11:37;;;;;;;7.13;2.50;;;;;;;;;;4779931;28;20043;-81
2021/10/12 00:14:06;;;;;;;8.85;2.92;;;;;;;;;;4777261;28;20100;-81
2021/10/12 00:16:35;;;;;;;8.80;2.97;;;;;;;;;;4770107;28;20038;-81
2021/10/12 00:19:02;;;;;;;7.47;2.53;;;;;;;;;;4802778;28;20050;-81
2021/10/12 00:21:28;;;;;;;7.55;2.70;;;;;;;;;;4776230;28;20026;-80
2021/10/12 00:23:55;;;;;;;7.28;2.83;;;;;;;;;;4770145;28;20109;-80
2021/10/12 00:26:21;;;;;;;8.05;3.30;;;;;;;;;;4765922;28;20888;-81
2021/10/12 00:28:48;;;;;;;7.72;3.03;;;;;;;;;;4782468;28;20069;-80
2021/10/12 00:31:15;;;;;;;8.60;3.10;;;;;;;;;;4769560;28;20222;-79
2021/10/12 00:33:42;;;;;;;10.82;3.00;;;;;;;;;;4774200;28;20062;-82
2021/10/12 00:36:08;;;;;;;8.48;2.80;;;;;;;;;;4783577;28;20110;-81
2021/10/12 00:38:34;;;;;;;;;;;;;;;;;;4778502;28;20039;-80
2021/10/12 00:41:01;;;;;;;7.80;2.63;;;;;;;;;;4772514;28;20178;-80
2021/10/12 00:43:27;;;;;;;7.25;2.90;;;;;;;;;;4783832;28;20730;-79
2021/10/12 00:45:58;;;;;;;9.60;3.60;;;;;;;;;;4754668;28;20794;-80
2021/10/12 00:48:25;;;;;;;7.93;2.92;;;;;;;;;;4835328;28;20043;-80
2021/10/12 00:50:53;;;;;;;9.15;2.50;;;;;;;;;;4788517;28;21164;-80
2021/10/12 00:53:20;;;;;;;7.45;2.15;;;;;;;;;;4770974;28;20049;-79
2021/10/12 00:55:46;;;;;;;7.65;2.65;;;;;;;;;;4789110;28;20043;-80
2021/10/12 00:58:14;;;;;;;7.50;2.90;;;;;;;;;;4793827;28;20098;-80
2021/10/12 01:00:42;;;;;;;7.47;2.90;;;;;;;;;;4784921;28;20070;-82
2021/10/12 01:03:09;;;;;;;8.10;2.90;;;;;;;;;;4812222;28;20065;-81
2021/10/12 01:05:35;;;;;;;7.55;2.50;;;;;;;;;;4804411;28;20038;-80
2021/10/12 01:08:02;;;;;;;13.57;2.83;;;;;;;;;;4787738;28;20164;-81
2021/10/12 01:10:29;;;;;;;8.55;2.78;;;;;;;;;;4813478;28;20065;-80
2021/10/12 01:12:56;;;;;;;6.53;2.55;;;;;;;;;;4774945;28;20086;-79
2021/10/12 01:15:25;;;;;;;6.20;2.45;;;;;;;;;;4760124;28;20065;-81
2021/10/12 01:17:52;;;;;;;7.75;2.72;;;;;;;;;;4780989;28;20030;-80
2021/10/12 01:20:19;;;;;;;8.68;2.78;;;;;;;;;;4765901;28;20050;-79
2021/10/12 01:22:48;;;;;;;7.57;2.70;;;;;;;;;;4760961;28;20117;-79
2021/10/12 01:25:15;;;;;;;8.00;2.40;;;;;;;;;;4772822;28;20034;-81
2021/10/12 01:27:42;;;;;;;9.57;3.00;;;;;;;;;;4758520;28;22335;-80
2021/10/12 01:30:09;;;;;;;9.60;2.40;;;;;;;;;;4769150;28;20766;-80
2021/10/12 01:32:37;;;;;;;6.93;2.33;;;;;;;;;;4766227;28;20877;-80
2021/10/12 01:35:04;;;;;;;7.13;2.75;;;;;;;;;;4742946;28;20072;-81
2021/10/12 01:37:30;;;;;;;7.97;2.38;;;;;;;;;;4766307;28;20038;-82
2021/10/12 01:39:57;;;;;;;8.32;2.40;;;;;;;;;;4759296;28;20042;-80
2021/10/12 01:42:24;;;;;;;7.80;2.30;;;;;;;;;;4764559;28;20856;-80
2021/10/12 01:44:52;;;;;;;9.10;2.35;;;;;;;;;;4758394;28;20435;-81
2021/10/12 01:47:19;;;;;;;8.90;2.30;;;;;;;;;;4746187;28;20782;-80
2021/10/12 01:49:46;;;;;;;7.65;2.05;;;;;;;;;;4741893;28;20049;-80
2021/10/12 01:52:13;;;;;;;5.53;1.98;;;;;;;;;;4763535;28;20073;-83
2021/10/12 01:54:39;;;;;;;6.93;2.13;;;;;;;;;;4750096;28;20070;-80
2021/10/12 01:57:06;;;;;;;6.05;2.25;;;;;;;;;;4774591;28;20681;-79
2021/10/12 01:59:32;;;;;;;8.50;2.22;;;;;;;;;;4765258;28;20120;-80
2021/10/12 02:02:01;;;;;;;6.95;2.30;;;;;;;;;;4766607;28;20050;-80
2021/10/12 02:04:28;;;;;;;6.10;2.13;;;;;;;;;;4777412;28;20085;-80
2021/10/12 02:06:55;;;;;;;7.93;2.40;;;;;;;;;;4761157;28;20034;-80
2021/10/12 02:09:22;;;;;;;7.47;2.72;;;;;;;;;;4759016;28;20036;-81
2021/10/12 02:11:48;;;;;;;8.50;2.50;;;;;;;;;;4759825;28;20873;-80
2021/10/12 02:14:15;;;;;;;5.95;2.33;;;;;;;;;;4760897;28;20735;-81
2021/10/12 02:16:42;;;;;;;7.30;2.28;;;;;;;;;;4760527;28;20856;-80
2021/10/12 02:19:08;;;;;;;6.85;2.30;;;;;;;;;;4761838;28;20077;-82
2021/10/12 02:21:35;;;;;;;9.27;2.40;;;;;;;;;;4760962;28;20663;-81
2021/10/12 02:24:04;;;;;;;9.38;2.47;;;;;;;;;;4765459;28;21532;-81
2021/10/12 02:26:30;;;;;;;6.28;2.25;;;;;;;;;;4759070;28;20042;-80
2021/10/12 02:28:56;;;;;;;;;;;;;;;;;;4762297;28;20066;-80
2021/10/12 02:31:23;;;;;;;7.18;2.22;;;;;;;;;;4755308;28;20090;-79
2021/10/12 02:33:49;;;;;;;9.00;2.58;;;;;;;;;;4761986;28;20670;-80
2021/10/12 02:36:15;;;;;;;;;;;;;;;;;;4761069;28;22685;-79
2021/10/12 02:38:42;;;;;;;7.53;2.33;;;;;;;;;;4762895;28;19918;-80
2021/10/12 02:41:08;;;;;;;;;;;;;;;;;;4767355;28;20724;-84
2021/10/12 02:43:35;;;;;;;7.93;2.55;;;;;;;;;;4760045;28;20763;-81
2021/10/12 02:46:02;;;;;;;7.30;2.40;;;;;;;;;;4761881;28;20122;-80
2021/10/12 02:48:28;;;;;;;7.00;2.60;;;;;;;;;;4781266;28;20038;-82
2021/10/12 02:50:54;;;;;;;;;;;;;;;;;;4763274;28;20084;-80
2021/10/12 02:53:20;;;;;;;7.05;2.50;;;;;;;;;;4767554;28;21501;-81
2021/10/12 02:55:46;;;;;;;;;;;;;;;;;;4768989;28;20758;-80
2021/10/12 02:58:15;;;;;;;7.35;2.78;;;;;;;;;;4785035;28;22021;-79
2021/10/12 03:00:44;;;;;;;7.65;2.50;;;;;;;;;;4794309;28;20046;-79
2021/10/12 03:03:11;;;;;;;6.40;2.28;;;;;;;;;;4777216;28;20124;-81
2021/10/12 03:05:37;;;;;;;7.53;2.40;;;;;;;;;;4757278;28;20674;-81
2021/10/12 03:08:04;;;;;;;7.07;2.33;;;;;;;;;;4756224;28;20043;-80
2021/10/12 03:10:31;;;;;;;7.55;2.10;;;;;;;;;;4755236;28;20753;-79
2021/10/12 03:12:57;;;;;;;7.68;2.60;;;;;;;;;;4740775;28;20137;-80
2021/10/12 03:15:23;;;;;;;;;;;;;;;;;;4740471;28;22647;-80
2021/10/12 03:17:49;;;;;;;6.40;2.22;;;;;;;;;;4754928;28;22647;-80
2021/10/12 03:20:19;;;;;;;6.55;2.22;;;;;;;;;;4750052;28;20817;-79
2021/10/12 03:22:45;;;;;;;7.13;2.53;;;;;;;;;;4757317;28;20760;-80
2021/10/12 03:25:11;;;;;;;8.52;2.40;;;;;;;;;;4758251;28;20054;-79
2021/10/12 03:27:37;;;;;;;;;;;;;;;;;;4755598;28;20206;-80
2021/10/12 03:30:04;;;;;;;7.30;2.40;;;;;;;;;;4767084;28;21754;-80
2021/10/12 03:32:30;;;;;;;6.57;2.33;;;;;;;;;;4736833;28;20039;-79
2021/10/12 03:34:57;;;;;;;9.38;2.20;;;;;;;;;;4749440;28;20060;-81
2021/10/12 03:37:23;;;;;;;;;;;;;;;;;;4751630;28;20034;-81
2021/10/12 03:39:49;;;;;;;6.53;2.22;;;;;;;;;;4758279;28;19968;-80
2021/10/12 03:42:15;;;;;;;10.20;2.63;;;;;;;;;;4754866;28;20034;-80
2021/10/12 03:44:42;;;;;;;6.85;2.55;;;;;;;;;;4754124;28;20035;-80
2021/10/12 03:47:08;;;;;;;6.57;2.35;;;;;;;;;;4771904;28;20376;-80
2021/10/12 03:49:34;;;;;;;6.25;2.42;;;;;;;;;;4749969;28;20893;-79
2021/10/12 03:52:00;;;;;;;6.57;2.33;;;;;;;;;;4752411;28;20041;-82
2021/10/12 03:54:27;;;;;;;6.20;2.20;;;;;;;;;;4748229;28;20042;-81
2021/10/12 03:56:53;;;;;;;7.43;2.50;;;;;;;;;;4754957;28;20436;-80
2021/10/12 03:59:19;;;;;;;7.20;2.47;;;;;;;;;;4761925;28;20073;-80
2021/10/12 04:01:46;;;;;;;7.50;2.30;;;;;;;;;;4762091;28;20050;-80
2021/10/12 04:04:12;;;;;;;;;;;;;;;;;;4770015;28;20042;-80
2021/10/12 04:06:38;;;;;;;7.05;2.40;;;;;;;;;;4773985;28;19917;-80
2021/10/12 04:09:05;;;;;;;6.97;2.10;;;;;;;;;;4767751;28;22621;-80
2021/10/12 04:11:31;;;;;;;;;;;;;;;;;;4781949;28;20163;-79
2021/10/12 04:13:57;;;;;;;7.03;2.42;;;;;;;;;;4783783;28;20763;-79
2021/10/12 04:16:23;;;;;;;;;;;;;;;;;;4784373;28;21623;-80
2021/10/12 04:18:50;;;;;;;6.95;2.55;;;;;;;;;;4777287;28;19928;-80
2021/10/12 04:21:16;;;;;;;8.05;2.30;;;;;;;;;;4781233;28;20715;-80
2021/10/12 04:23:42;;;;;;;;;;;;;;;;;;4779178;28;20716;-81
2021/10/12 04:26:12;;;;;;;7.85;2.45;;;;;;;;;;4786927;28;20625;-81
2021/10/12 04:28:38;;;;;;;7.50;2.28;;;;;;;;;;4780352;28;20690;-80
2021/10/12 04:31:04;;;;;;;;;;;;;;;;;;4791235;28;20042;-80
2021/10/12 04:33:34;;;;;;;6.25;2.30;;;;;;;;;;4804269;28;20732;-80
2021/10/12 04:36:00;;;;;;;8.55;2.47;;;;;;;;;;4808918;28;20484;-80
2021/10/12 04:38:26;;;;;;;;;;;;;;;;;;4805422;28;20822;-80
2021/10/12 04:40:53;;;;;;;6.18;2.50;;;;;;;;;;4784696;28;22016;-81
2021/10/12 04:43:21;;;;;;;;;;;;;;;;;;4771891;28;20038;-81
2021/10/12 04:45:47;;;;;;;7.28;2.80;;;;;;;;;;4783947;28;20056;-79
2021/10/12 04:48:15;;;;;;;7.50;2.40;;;;;;;;;;4784460;28;20073;-78
2021/10/12 04:50:44;;;;;;;6.75;2.42;;;;;;;;;;4775086;28;20042;-81
2021/10/12 04:53:10;;;;;;;6.93;2.53;;;;;;;;;;4770640;28;20469;-81
2021/10/12 04:55:40;;;;;;;7.15;2.72;;;;;;;;;;4757325;28;20808;-79
2021/10/12 04:58:08;;;;;;;5.63;2.20;;;;;;;;;;4788524;28;20317;-81
2021/10/12 05:00:34;;;;;;;7.72;2.70;;;;;;;;;;4775937;28;20121;-81
2021/10/12 05:03:09;;;;;;;7.78;2.75;;;;;;;;;;4781723;28;20809;-79
2021/10/12 05:05:35;;;;;;;9.05;3.53;;;;;;;;;;4772986;28;20053;-80
2021/10/12 05:08:01;;;;;;;8.85;2.88;;;;;;;;;;4790036;28;20069;-80
2021/10/12 05:10:28;;;;;;;7.18;2.67;;;;;;;;;;4779228;28;20042;-80
2021/10/12 05:12:54;;;;;;;;;;;;;;;;;;4778828;28;20901;-80
2021/10/12 05:15:25;;;;;;;8.35;2.70;;;;;;;;;;4767690;28;19914;-78
2021/10/12 05:17:52;;;;;;;6.90;2.72;;;;;;;;;;4753045;28;21523;-78
2021/10/12 05:20:18;;;;;;;8.40;2.47;;;;;;;;;;4763886;28;20670;-80
2021/10/12 05:22:45;;;;;;;7.70;2.47;;;;;;;;;;4774999;28;20034;-78
2021/10/12 05:25:12;;;;;;;8.18;2.58;;;;;;;;;;4748288;28;20038;-80
2021/10/12 05:27:38;;;;;;;;;;;;;;;;;;4774699;28;20742;-80
2021/10/12 05:30:05;;;;;;;7.00;2.40;;;;;;;;;;4767978;28;20013;-80
2021/10/12 05:32:31;;;;;;;6.63;2.58;;;;;;;;;;4784083;28;20832;-79
2021/10/12 05:34:59;;;;;;;7.22;2.30;;;;;;;;;;4761317;28;20133;-80
2021/10/12 05:37:25;;;;;;;7.75;2.63;;;;;;;;;;4759769;28;21164;-79
2021/10/12 05:39:51;;;;;;;10.20;2.47;;;;;;;;;;4778200;28;20049;-80
2021/10/12 05:42:18;;;;;;;;;;;;;;;;;;4765281;28;20042;-79
2021/10/12 05:44:44;;;;;;;6.32;2.50;;;;;;;;;;4753129;28;20008;-79
2021/10/12 05:47:11;;;;;;;8.68;2.28;;;;;;;;;;4783363;28;20825;-78
2021/10/12 05:49:37;;;;;;;;;;;;;;;;;;4767732;28;20701;-78
2021/10/12 05:52:04;;;;;;;8.63;2.65;;;;;;;;;;4768550;28;21802;-79
2021/10/12 05:54:33;;;;;;;9.63;3.25;;;;;;;;;;4773425;28;20065;-79
2021/10/12 05:57:18;;;;;;;8.40;2.80;;;;;;;;;;4755696;28;20044;-78
2021/10/12 05:59:44;;;;;;;9.80;2.85;;;;;;;;;;4775638;28;20039;-80
2021/10/12 06:02:11;;;;;;;7.38;2.78;;;;;;;;;;4761332;28;20109;-80
2021/10/12 06:04:37;;;;;;;7.28;2.60;;;;;;;;;;4750693;28;20046;-80
2021/10/12 06:07:03;;;;;;;7.95;2.75;;;;;;;;;;4743327;28;20181;-80
2021/10/12 06:09:29;;;;;;;;;;;;;;;;;;4758323;28;20035;-79
2021/10/12 06:11:56;;;;;;;7.80;2.50;;;;;;;;;;4759752;28;19917;-78
2021/10/12 06:14:22;;;;;;;;;;;;;;;;;;4757432;28;20035;-79
2021/10/12 06:16:48;;;;;;;7.40;2.65;;;;;;;;;;4762946;28;20078;-79
2021/10/12 06:19:15;;;;;;;10.32;2.97;;;;;;;;;;4747304;28;20952;-79
2021/10/12 06:21:41;;;;;;;9.00;2.70;;;;;;;;;;4762931;28;20177;-78
2021/10/12 06:24:07;;;;;;;;;;;;;;;;;;4875295;28;20042;-79
2021/10/12 06:26:38;;;;;;;9.68;3.05;;;;;;;;;;4930300;28;19922;-81
2021/10/12 06:29:12;;;;;;;7.50;2.90;;;;;;;;;;4787243;28;20753;-79
2021/10/12 06:31:41;;;;;;;;;;;;;;;;;;4762715;28;20130;-79
2021/10/12 06:34:07;;;;;;;9.55;2.83;;;;;;;;;;4776441;28;19922;-79
2021/10/12 06:36:34;;;;;;;;;;;;;;;;;;4774784;28;20034;-80
2021/10/12 06:39:10;;;;;;;6.90;2.85;;;;;;;;;;4770602;28;19918;-79
2021/10/12 06:41:37;;;;;;;8.93;2.95;;;;;;;;;;4762723;28;20066;-78
2021/10/12 06:44:03;;;;;;;9.02;3.33;;;;;;;;;;4755582;28;22503;-78
2021/10/12 06:46:30;;;;;;;8.88;3.60;;;;;;;;;;4759087;28;20766;-78
2021/10/12 06:48:56;;;;;;;;;;;;;;;;;;4750842;28;20715;-79
2021/10/12 06:51:23;;;;;;;11.85;3.75;;;;;;;;;;4759367;28;20028;-79
2021/10/12 06:53:51;;;;;;;14.40;3.88;;;;;;;;;;4760901;28;20038;-80
2021/10/12 06:56:18;;;;;;;11.02;3.50;;;;;;;;;;4740547;28;20786;-79
2021/10/12 06:58:45;;;;;;;13.65;3.50;;;;;;;;;;4761245;28;20728;-78
2021/10/12 07:01:11;;;;;;;16.05;3.97;;;;;;;;;;4749099;28;20802;-78
2021/10/12 07:03:38;;;;;;;15.95;3.97;;;;;;;;;;4752053;28;20030;-81
2021/10/12 07:06:04;;;;;;;11.10;3.35;;;;;;;;;;4752548;28;20026;-78
2021/10/12 07:08:30;;;;;;;;;;;;;;;;;;4749456;28;20640;-79
2021/10/12 07:10:56;;;;;;;10.48;3.20;;;;;;;;;;4754277;28;19928;-79
2021/10/12 07:13:28;;;;;;;8.10;3.00;;;;;;;;;;4754529;28;20751;-79
2021/10/12 07:15:56;;;;;;;9.88;3.22;;;;;;;;;;4754659;28;20081;-79
2021/10/12 07:18:26;;;;;;;8.30;3.00;;;;;;;;;;4757471;28;22180;-79
2021/10/12 07:21:15;;;;;;;9.48;2.95;;;;;;;;;;4771156;28;20140;-79
2021/10/12 07:23:43;;;;;;;8.25;3.40;;;;;;;;;;4756873;28;22505;-78
2021/10/12 07:26:11;;;;;;;8.82;3.05;;;;;;;;;;4758308;28;20644;-79
2021/10/12 07:28:43;;;;;;;9.10;3.15;;;;;;;;;;4741876;28;20043;-79
2021/10/12 07:31:09;;;;;;;13.15;3.05;;;;;;;;;;4734435;28;20062;-79
2021/10/12 07:33:43;;;;;;;9.43;3.17;;;;;;;;;;4754586;28;22504;-80
2021/10/12 07:36:10;;;;;;;8.43;3.40;;;;;;;;;;4859308;28;20023;-79
2021/10/12 07:38:36;;;;;;;8.55;3.13;;;;;;;;;;4940040;28;20043;-79
2021/10/12 07:41:02;;;;;;;;;;;;;;;;;;4946403;28;20717;-79
2021/10/12 07:43:28;;;;;;;10.32;3.83;;;;;;;;;;4914865;28;19996;-78
2021/10/12 07:45:55;;;;;;;13.07;4.10;;;;;;;;;;4755367;28;20065;-79
2021/10/12 07:48:31;;;;;;;9.93;3.60;;;;;;;;;;4760075;28;20046;-79
2021/10/12 07:51:00;;;;;;;10.80;3.53;;;;;;;;;;4771503;28;20035;-79
2021/10/12 07:56:35;;;;;;;9.35;2.67;;;;;;;;;;4768766;28;22080;-78
2021/10/12 07:59:05;;;;;;;7.53;2.80;;;;;;;;;;4758525;28;20577;-78
2021/10/12 08:01:59;;;;;;;9.35;4.00;;;;;;;;;;4737293;28;20046;-81
2021/10/12 08:04:29;;;;;;;11.30;3.22;;;;;;;;;;4747955;28;20038;-78
2021/10/12 08:07:06;;;;;;;11.93;4.22;;;;;;;;;;4776918;28;20053;-79
2021/10/12 08:09:40;;;;;;;8.38;2.72;;;;;;;;;;4759955;28;20090;-78
2021/10/12 08:12:16;;;;;;;7.53;2.70;;;;;;;;;;4771024;28;20085;-78
2021/10/12 08:14:46;;;;;;;9.23;3.15;;;;;;;;;;4749805;28;21160;-80
2021/10/12 08:17:29;;;;;;;10.77;3.33;;;;;;;;;;4770720;28;21493;-79
2021/10/12 08:20:09;;;;;;;9.32;3.45;;;;;;;;;;4787418;28;20042;-79
2021/10/12 08:22:59;;;;;;;9.13;3.05;;;;;;;;;;4761487;28;20082;-78
2021/10/12 08:25:36;;;;;;;9.93;3.50;;;;;;;;;;4759589;28;20039;-80
2021/10/12 08:28:10;;;;;;;8.60;2.92;;;;;;;;;;4766552;28;20042;-80
2021/10/12 08:30:38;;;;;;;8.73;2.88;;;;;;;;;;4765994;28;20035;-79
2021/10/12 08:33:11;;;;;;;9.18;3.42;;;;;;;;;;4765573;28;20751;-79
2021/10/12 08:35:37;;;;;;;9.57;3.17;;;;;;;;;;4764037;28;20117;-79
2021/10/12 08:38:03;;;;;;;8.10;2.67;;;;;;;;;;4761048;28;21500;-79
2021/10/12 08:40:32;;;;;;;8.20;2.85;;;;;;;;;;4778205;28;20034;-78
2021/10/12 08:42:58;;;;;;;9.20;2.90;;;;;;;;;;4782783;28;20045;-82
2021/10/12 08:45:25;;;;;;;7.50;2.83;;;;;;;;;;4764521;28;20030;-79
2021/10/12 08:47:53;;;;;;;7.55;2.63;;;;;;;;;;4766370;28;21152;-81
2021/10/12 08:50:22;;;;;;;6.88;2.60;;;;;;;;;;4781016;28;20132;-81
2021/10/12 08:52:49;;;;;;;6.85;2.88;;;;;;;;;;4778848;28;20042;-80
2021/10/12 08:55:16;;;;;;;8.25;2.90;;;;;;;;;;4768979;28;20771;-79
2021/10/12 08:57:45;;;;;;;7.65;2.65;;;;;;;;;;4768502;28;20050;-80
2021/10/12 09:00:16;;;;;;;7.88;2.50;;;;;;;;;;4780847;28;20738;-79
2021/10/12 09:02:56;;;;;;;8.88;3.00;;;;;;;;;;4768486;28;20089;-80
2021/10/12 09:05:24;;;;;;;6.22;2.30;;;;;;;;;;4768123;28;20035;-79
2021/10/12 09:07:51;;;;;;;7.47;2.42;;;;;;;;;;4772064;28;21723;-81
2021/10/12 09:10:21;;;;;;;8.40;3.25;;;;;;;;;;4762877;28;20046;-80
2021/10/12 09:12:53;;;;;;;10.82;3.67;;;;;;;;;;4759522;28;20080;-79
2021/10/12 09:15:20;;;;;;;9.68;3.45;;;;;;;;;;4771659;28;21232;-80
2021/10/12 09:17:49;;;;;;;10.75;3.95;;;;;;;;;;4771859;28;20644;-79
2021/10/12 09:20:15;;;;;;;11.32;3.75;;;;;;;;;;4762252;28;22337;-81
2021/10/12 09:23:02;;;;;;;9.90;3.78;;;;;;;;;;4770068;28;20042;-79
2021/10/12 09:25:28;;;;;;;;;;;;;;;;;;4764492;28;20045;-79
2021/10/12 09:27:56;;;;;;;9.40;3.10;;;;;;;;;;4759735;28;19980;-79
2021/10/12 09:30:27;;;;;;;6.97;2.30;;;;;;;;;;4765308;28;20064;-79
2021/10/12 09:33:08;;;;;;;6.05;2.00;;;;;;;;;;4753842;28;22448;-79
2021/10/12 09:35:35;;;;;;;6.40;1.70;;;;;;;;;;4767019;28;20884;-79
2021/10/12 09:38:12;;;;;;;6.60;2.10;;;;;;;;;;4773240;28;20057;-81
2021/10/12 09:40:40;;;;;;;6.10;2.17;;;;;;;;;;4775387;28;20077;-80
2021/10/12 09:43:06;;;;;;;11.55;4.90;;;;;;;;;;4763988;28;20049;-80
2021/10/12 09:45:35;;;;;;;5.93;2.03;;;;;;;;;;4766575;28;20750;-80
2021/10/12 09:48:02;;;;;;;6.50;2.10;;;;;;;;;;4773828;28;21379;-79
2021/10/12 09:50:33;;;;;;;4.60;1.70;;;;;;;;;;4765414;28;20141;-79
2021/10/12 09:52:59;;;;;;;6.45;2.08;;;;;;;;;;4772214;28;20046;-78
2021/10/12 09:55:36;;;;;;;6.05;2.15;;;;;;;;;;4755199;28;20049;-79
2021/10/12 09:58:04;;;;;;;7.85;2.28;;;;;;;;;;4779372;28;20132;-79
2021/10/12 10:00:31;;;;;;;6.10;2.03;;;;;;;;;;4769586;28;20806;-79
2021/10/12 10:03:02;;;;;;;7.55;2.88;;;;;;;;;;4773172;28;20269;-80
2021/10/12 10:05:28;;;;;;;9.02;2.70;;;;;;;;;;4755470;28;20070;-80
2021/10/12 10:07:56;;;;;;;5.60;2.15;;;;;;;;;;4779772;28;20038;-80
2021/10/12 10:10:23;;;;;;;5.80;2.28;;;;;;;;;;4779881;28;20077;-80
2021/10/12 10:12:49;;;;;;;7.97;2.58;;;;;;;;;;4780578;28;20817;-81
2021/10/12 10:15:15;;;;;;;6.40;2.22;;;;;;;;;;4798267;28;20041;-81
2021/10/12 10:17:42;;;;;;;9.23;4.10;;;;;;;;;;4793931;28;20134;-78
2021/10/12 10:20:10;;;;;;;6.15;2.20;;;;;;;;;;4792521;28;20813;-80
2021/10/12 10:22:43;;;;;;;6.05;2.10;;;;;;;;;;4803864;28;20130;-80
2021/10/12 10:25:29;;;;;;;7.05;2.63;;;;;;;;;;4791228;28;20169;-80
2021/10/12 10:27:56;;;;;;;6.30;2.80;;;;;;;;;;4773316;28;20046;-80
2021/10/12 10:30:27;;;;;;;8.05;2.58;;;;;;;;;;4788749;28;20038;-80
2021/10/12 10:32:58;;;;;;;7.25;2.20;;;;;;;;;;4782810;28;20031;-79
2021/10/12 10:35:34;;;;;;;17.35;3.90;;;;;;;;;;4763474;28;20904;-79
2021/10/12 10:38:20;;;;;;;8.55;3.40;;;;;;;;;;4782887;28;20044;-79
2021/10/12 10:40:50;;;;;;;6.57;2.35;;;;;;;;;;4794595;28;20836;-79
2021/10/12 10:43:16;;;;;;;5.72;2.17;;;;;;;;;;4944837;28;20042;-79
2021/10/12 10:45:51;;;;;;;5.38;2.00;;;;;;;;;;4956498;28;20149;-80
2021/10/12 10:48:22;;;;;;;6.88;2.13;;;;;;;;;;4791653;28;20053;-78
2021/10/12 10:50:52;;;;;;;5.97;2.13;;;;;;;;;;4819455;28;20038;-80
2021/10/12 10:53:37;;;;;;;6.97;2.40;;;;;;;;;;4758482;28;20046;-79
2021/10/12 10:56:03;;;;;;;5.82;1.90;;;;;;;;;;4960246;28;20097;-79
2021/10/12 10:58:30;;;;;;;6.38;2.00;;;;;;;;;;4952006;28;20042;-81
2021/10/12 11:00:58;;;;;;;6.18;2.38;;;;;;;;;;4955957;28;20048;-78
2021/10/12 11:03:42;;;;;;;5.90;2.05;;;;;;;;;;4946180;28;20056;-78
2021/10/12 11:06:20;;;;;;;6.88;1.85;;;;;;;;;;4959811;28;20033;-79
2021/10/12 11:08:56;;;;;;;8.00;2.72;;;;;;;;;;4958014;28;20042;-79
2021/10/12 11:11:23;;;;;;;8.77;2.92;;;;;;;;;;4942898;28;20117;-78
2021/10/12 11:13:49;;;;;;;10.65;4.88;;;;;;;;;;4810885;28;21033;-78
2021/10/12 11:16:17;;;;;;;9.43;3.38;;;;;;;;;;4779984;28;22004;-78
2021/10/12 11:18:45;;;;;;;9.02;3.15;;;;;;;;;;4783828;28;20042;-78
2021/10/12 11:21:15;;;;;;;7.13;2.10;;;;;;;;;;4797173;28;20670;-79
2021/10/12 11:24:02;;;;;;;8.05;2.22;;;;;;;;;;4761268;28;20790;-79
2021/10/12 11:26:29;;;;;;;8.93;2.45;;;;;;;;;;4775738;28;20053;-79
2021/10/12 11:28:56;;;;;;;9.52;3.55;;;;;;;;;;4793659;28;20721;-79
2021/10/12 11:31:25;;;;;;;11.00;5.43;;;;;;;;;;4774597;28;20043;-79
2021/10/12 11:33:53;;;;;;;12.15;6.28;;;;;;;;;;4918242;28;20039;-81
2021/10/12 11:36:23;;;;;;;14.70;8.70;;;;;;;;;;4780665;28;20023;-78
2021/10/12 11:38:51;;;;;;;17.40;12.55;;;;;;;;;;4764407;28;20033;-79
2021/10/12 11:41:22;;;;;;;15.43;9.73;;;;;;;;;;4776597;28;20408;-79
2021/10/12 11:43:49;;;;;;;6.85;2.15;;;;;;;;;;4799684;28;20237;-79
2021/10/12 11:46:24;;;;;;;5.07;2.05;;;;;;;;;;4876941;28;21286;-79
2021/10/12 11:48:51;;;;;;;5.30;1.73;;;;;;;;;;4781884;28;20689;-78
2021/10/12 11:51:20;;;;;;;9.90;5.43;;;;;;;;;;4764393;28;20674;-79
2021/10/12 11:53:47;;;;;;;12.75;7.97;;;;;;;;;;4772854;28;20678;-80
2021/10/12 11:56:14;;;;;;;11.07;6.03;;;;;;;;;;4864846;28;20125;-78
2021/10/12 11:58:41;;;;;;;7.40;2.40;;;;;;;;;;4795093;28;20731;-78
2021/10/12 12:01:09;;;;;;;9.65;4.35;;;;;;;;;;4778039;28;20731;-81
2021/10/12 12:03:36;;;;;;;10.40;2.78;;;;;;;;;;4890131;28;20770;-79
2021/10/12 12:06:03;;;;;;;7.20;3.30;;;;;;;;;;4868068;28;20088;-80
2021/10/12 12:08:31;;;;;;;10.63;5.22;;;;;;;;;;4752304;28;20039;-79
2021/10/12 12:10:58;;;;;;;6.82;2.17;;;;;;;;;;4769368;28;20036;-79
2021/10/12 12:13:31;;;;;;;5.32;2.17;;;;;;;;;;4770877;28;20038;-81
2021/10/12 12:15:58;;;;;;;8.77;4.90;;;;;;;;;;4917642;28;20042;-79
2021/10/12 12:18:27;;;;;;;10.98;3.88;;;;;;;;;;4928315;28;20046;-79
2021/10/12 12:20:53;;;;;;;8.15;2.30;;;;;;;;;;4789548;28;20053;-79
2021/10/12 12:26:17;;;;;;;7.28;2.30;;;;;;;;;;4973576;23;20054;-85
2021/10/12 12:28:55;;;;;;;7.13;2.17;;;;;;;;;;4858887;29;20039;-85
2021/10/12 12:31:43;;;;;;;10.02;5.43;;;;;;;;;;4730695;29;20120;-86
2021/10/12 12:34:30;;;;;;;8.13;3.05;;;;;;;;;;4849712;29;20176;-85
2021/10/12 12:37:05;;;;;;;7.88;2.92;;;;;;;;;;4705155;29;20048;-86
2021/10/12 12:39:41;;;;;;;7.65;2.38;;;;;;;;;;4730483;29;20104;-86
2021/10/12 12:42:30;;;;;;;4.97;2.05;;;;;;;;;;4706811;29;20048;-87
2021/10/12 12:45:11;;;;;;;11.93;5.85;;;;;;;;;;4885259;29;20178;-85
2021/10/12 12:54:08;;;;;;;9.20;3.20;;;;;;;;;;4712503;29;20057;-86
2021/10/12 13:09:36;;;;;;;7.20;2.67;;;;;;;;;;4699604;29;20049;-86
2021/10/12 13:18:19;;;;;;;5.53;2.20;;;;;;;;;;4697001;29;20081;-90
2021/10/12 13:20:48;;;;;;;7.20;1.80;;;;;;;;;;4677004;29;20211;-85
2021/10/12 13:23:42;;;;;;;8.30;2.15;;;;;;;;;;4737424;29;21740;-84
2021/10/12 13:26:19;;;;;;;5.68;2.15;;;;;;;;;;4691994;29;20080;-85
2021/10/12 13:28:47;;;;;;;4.50;1.90;;;;;;;;;;4641419;29;20060;-86
2021/10/12 13:34:54;;;;;;;;;;;;;;;;;;;;;
2021/10/12 14:13:23;;;;;;;6.40;2.08;;;;;;;;;;4515512;30;21448;-84
2021/10/12 14:36:32;;;;;;;;;;;;;;;;;;;;;
2021/10/12 14:45:25;;;;;;;6.85;1.85;;;;;;;;;;4534950;30;20059;-85
2021/10/12 14:51:35;;;;;;;;;;;;;;;;;;;;;
2021/10/12 15:10:20;;;;;;;7.40;2.67;;;;;;;;;;4543608;30;20098;-89
2021/10/12 15:49:09;;;;;;;8.80;3.97;;;;;;;;;;4880910;28;21164;-83
2021/10/12 15:51:39;;;;;;;8.13;3.40;;;;;;;;;;4868614;28;20044;-84
2021/10/12 15:54:20;;;;;;;;;;;;;;;;;;;;;
2021/10/12 15:56:51;;;;;;;14.60;10.38;;;;;;;;;;4861961;28;21538;-86
2021/10/12 15:59:17;;;;;;;11.68;5.32;;;;;;;;;;4858755;28;20041;-84
2021/10/12 16:01:49;;;;;;;15.75;11.27;;;;;;;;;;4870355;28;21363;-83
2021/10/12 16:04:17;;;;;;;6.95;2.10;;;;;;;;;;4861277;28;20033;-87
2021/10/12 16:07:05;;;;;;;17.15;13.27;;;;;;;;;;4864533;28;20107;-85
2021/10/12 16:09:33;;;;;;;12.00;7.47;;;;;;;;;;4864802;28;20712;-85
2021/10/12 16:12:17;;;;;;;8.55;5.00;;;;;;;;;;4865180;28;20624;-85
2021/10/12 16:27:52;;;;;;;13.02;8.05;;;;;;;;;;4801726;29;20133;-85
2021/10/12 16:30:22;;;;;;;;;;;;;;;;;;4751150;29;20040;-86
2021/10/12 16:37:02;;;;;;;13.48;7.93;;;;;;;;;;4799049;29;21515;-86
2021/10/12 16:43:14;;;;;;;11.80;5.82;;;;;;;;;;4780664;29;20170;-85
2021/10/12 16:46:27;;;;;;;9.23;4.82;;;;;;;;;;4772470;29;20153;-85
2021/10/12 16:49:09;;;;;;;11.23;6.63;;;;;;;;;;4755500;29;20190;-86
2021/10/12 16:51:46;;;;;;;10.98;5.28;;;;;;;;;;4770860;29;20229;-87
2021/10/12 16:54:16;;;;;;;9.20;4.00;;;;;;;;;;4768880;29;20248;-84
2021/10/12 16:56:54;;;;;;;12.15;6.05;;;;;;;;;;4843714;28;22270;-85
2021/10/12 16:59:31;;;;;;;13.23;5.93;;;;;;;;;;4831855;28;20087;-85
2021/10/12 17:01:59;;;;;;;10.35;5.28;;;;;;;;;;4775825;29;20043;-84
2021/10/12 17:04:53;;;;;;;9.93;5.68;;;;;;;;;;4793038;28;20040;-84
2021/10/12 17:07:25;;;;;;;10.80;4.78;;;;;;;;;;4788013;29;20130;-85
2021/10/12 17:09:55;;;;;;;11.23;5.53;;;;;;;;;;4862100;29;21150;-84
2021/10/12 17:12:27;;;;;;;10.82;5.03;;;;;;;;;;4904060;28;20050;-85
2021/10/12 17:15:17;;;;;;;9.68;4.15;;;;;;;;;;4893342;29;20691;-86
2021/10/12 17:17:52;;;;;;;9.18;3.83;;;;;;;;;;4889024;29;20123;-85
2021/10/12 17:20:21;;;;;;;11.00;4.20;;;;;;;;;;4961864;28;20069;-84
2021/10/12 17:23:13;;;;;;;10.38;5.35;;;;;;;;;;4934034;28;20359;-85
2021/10/12 17:25:43;;;;;;;11.68;5.15;;;;;;;;;;4959798;28;20040;-85
2021/10/12 17:28:10;;;;;;;12.77;5.50;;;;;;;;;;4922627;28;20088;-85
2021/10/12 17:30:40;;;;;;;10.63;4.97;;;;;;;;;;4946862;28;20097;-85
2021/10/12 17:33:08;;;;;;;10.50;3.95;;;;;;;;;;4949323;28;20034;-84
2021/10/12 17:35:44;;;;;;;9.07;4.97;;;;;;;;;;4930788;28;20030;-84
2021/10/12 17:38:17;;;;;;;11.73;5.20;;;;;;;;;;4955083;28;20065;-84
2021/10/12 17:43:49;;;;;;;9.95;5.25;;;;;;;;;;4882423;28;20033;-87
2021/10/12 17:46:29;;;;;;;;;;;;;;;;;;;;;
2021/10/12 17:49:01;;;;;;;13.20;7.05;;;;;;;;;;4844651;28;20498;-84
2021/10/12 17:52:15;;;;;;;12.55;6.43;;;;;;;;;;4843809;28;20092;-85
2021/10/12 17:55:15;;;;;;;12.65;6.45;;;;;;;;;;4807417;28;20039;-83
2021/10/12 17:57:47;;;;;;;16.10;8.52;;;;;;;;;;4770736;28;21473;-84
2021/10/12 18:00:16;;;;;;;17.67;8.55;;;;;;;;;;4769861;28;20170;-85
2021/10/12 18:02:58;;;;;;;;;;;;;;;;;;;;;
2021/10/12 18:05:49;;;;;;;;;;;;;;;;;;;;;
2021/10/12 18:08:33;;;;;;;17.80;10.07;;;;;;;;;;4756804;28;20042;-86
2021/10/12 18:14:14;;;;;;;19.10;10.02;;;;;;;;;;4807543;28;20093;-85